Time;durP1;ratioP1;P1;durP2;ratioP2;P2;SDS_P1;SDS_P2;PMS_P1;PMS_P2;Temp;Humidity;BMP_temperature;BMP_pressure;BME280_temperature;BME280_humidity;BME280_pressure;Samples;Min_cycle;Max_cycle;Signal;HPM_P1;HPM_P2
2022/11/13 00:01:40;;;;;;;6.07;4.75;;;;;;;22.44;49.14;100576.00;4214144;28;20445;-70
2022/11/13 00:03:42;;;;;;;6.50;4.93;;;;;;;22.45;49.17;100574.03;4214354;28;20463;-70
2022/11/13 00:05:44;;;;;;;6.25;4.40;;;;;;;22.42;49.21;100580.22;4217772;28;20097;-70
2022/11/13 00:07:45;;;;;;;5.13;4.63;;;;;;;22.45;49.23;100579.59;4217229;28;20467;-70
2022/11/13 00:09:46;;;;;;;5.90;4.60;;;;;;;22.46;48.92;100572.91;4217688;28;20032;-70
2022/11/13 00:11:48;;;;;;;5.32;4.72;;;;;;;22.42;49.29;100569.91;4217377;28;20044;-70
2022/11/13 00:13:55;;;;;;;6.60;4.85;;;;;;;22.29;49.11;100557.53;4217540;28;20044;-70
2022/11/13 00:16:05;;;;;;;5.70;4.55;;;;;;;22.41;49.21;100575.78;4217188;28;20043;-70
2022/11/13 00:18:06;;;;;;;5.95;4.95;;;;;;;22.43;48.98;100571.53;4217518;28;20109;-70
2022/11/13 00:20:10;;;;;;;6.18;4.68;;;;;;;22.43;49.34;100573.50;4217486;28;20121;-70
2022/11/13 00:22:11;;;;;;;5.83;4.70;;;;;;;22.40;49.24;100557.38;4217555;28;20039;-70
2022/11/13 00:24:13;;;;;;;5.53;4.97;;;;;;;22.42;48.84;100566.28;4217541;28;20169;-70
2022/11/13 00:26:19;;;;;;;6.68;4.88;;;;;;;22.41;49.03;100578.56;4216925;28;20036;-70
2022/11/13 00:28:20;;;;;;;5.70;4.18;;;;;;;22.41;49.24;100584.16;4217828;28;20036;-70
2022/11/13 00:30:21;;;;;;;6.68;5.50;;;;;;;22.40;48.96;100582.47;4217012;28;20097;-70
2022/11/13 00:32:23;;;;;;;5.55;4.20;;;;;;;22.35;49.13;100574.16;4216806;28;20044;-70
2022/11/13 00:34:24;;;;;;;6.75;4.82;;;;;;;22.39;48.84;100573.28;4217161;28;20053;-70
2022/11/13 00:36:27;;;;;;;5.53;4.03;;;;;;;22.39;49.09;100569.66;4217035;28;20441;-70
2022/11/13 00:38:31;;;;;;;6.93;4.57;;;;;;;22.39;49.15;100566.88;4217000;28;20425;-70
2022/11/13 00:40:32;;;;;;;9.15;5.05;;;;;;;22.36;49.29;100581.41;4217192;28;20421;-70
2022/11/13 00:42:34;;;;;;;5.57;4.70;;;;;;;22.25;48.88;100556.47;4216945;28;20437;-68
2022/11/13 00:44:35;;;;;;;7.03;4.65;;;;;;;22.39;49.24;100578.84;4216972;28;20064;-70
2022/11/13 00:46:36;;;;;;;5.25;4.45;;;;;;;22.40;49.38;100576.88;4216887;28;20044;-70
2022/11/13 00:48:37;;;;;;;7.50;4.40;;;;;;;22.23;49.05;100555.94;4217239;28;20093;-70
2022/11/13 00:50:41;;;;;;;6.72;5.03;;;;;;;22.41;48.96;100584.16;4216403;28;20052;-72
2022/11/13 00:52:43;;;;;;;5.38;4.32;;;;;;;22.42;49.17;100577.44;4216905;28;20065;-70
2022/11/13 00:54:44;;;;;;;6.88;4.82;;;;;;;22.41;49.33;100573.00;4217078;28;20040;-70
2022/11/13 00:56:45;;;;;;;5.63;4.82;;;;;;;22.40;49.11;100576.88;4216827;28;20089;-70
2022/11/13 00:58:47;;;;;;;4.85;4.35;;;;;;;22.37;49.06;100571.94;4216981;28;20089;-70
2022/11/13 01:00:51;;;;;;;4.40;4.00;;;;;;;22.41;49.44;100582.19;4217109;28;20040;-69
2022/11/13 01:02:52;;;;;;;5.95;4.38;;;;;;;22.41;49.21;100589.72;4216664;28;20043;-70
2022/11/13 01:04:54;;;;;;;5.65;5.05;;;;;;;22.39;49.03;100580.81;4216786;28;20058;-70
2022/11/13 01:06:55;;;;;;;5.70;5.05;;;;;;;22.39;49.10;100583.59;4216331;28;20089;-70
2022/11/13 01:09:02;;;;;;;7.05;5.00;;;;;;;22.39;49.10;100597.53;4216833;28;20040;-70
2022/11/13 01:11:13;;;;;;;5.45;4.60;;;;;;;22.39;49.01;100591.97;4216397;28;20082;-69
2022/11/13 01:13:15;;;;;;;7.22;5.07;;;;;;;22.41;49.37;100586.94;4216831;28;20109;-70
2022/11/13 01:15:16;;;;;;;5.93;5.25;;;;;;;22.39;49.04;100591.97;4215954;28;20101;-70
2022/11/13 01:17:17;;;;;;;5.20;4.70;;;;;;;22.38;49.34;100582.78;4215862;28;20054;-70
2022/11/13 01:19:19;;;;;;;6.07;5.10;;;;;;;22.37;49.04;100581.13;4216036;28;20417;-70
2022/11/13 01:21:26;;;;;;;6.50;5.00;;;;;;;22.39;48.99;100580.81;4216061;28;20471;-70
2022/11/13 01:23:27;;;;;;;6.15;5.03;;;;;;;22.38;48.97;100579.97;4216630;28;20089;-70
2022/11/13 01:25:30;;;;;;;7.20;5.32;;;;;;;22.39;49.07;100586.38;4216346;28;20036;-70
2022/11/13 01:27:31;;;;;;;5.57;4.80;;;;;;;22.36;48.81;100589.75;4216312;28;20089;-70
2022/11/13 01:29:32;;;;;;;6.50;5.10;;;;;;;22.39;49.03;100586.38;4216595;28;20113;-70
2022/11/13 01:31:36;;;;;;;6.50;5.05;;;;;;;22.37;49.11;100569.16;4216101;28;20091;-70
2022/11/13 01:33:40;;;;;;;6.15;5.25;;;;;;;22.26;48.83;100558.09;4216138;28;20040;-70
2022/11/13 01:35:41;;;;;;;7.38;5.05;;;;;;;22.36;49.04;100564.66;4216068;28;20024;-70
2022/11/13 01:37:43;;;;;;;5.25;4.60;;;;;;;22.37;48.88;100583.91;4216014;28;20468;-70
2022/11/13 01:39:44;;;;;;;7.28;4.90;;;;;;;22.35;49.20;100579.75;4216287;28;20070;-70
2022/11/13 01:41:45;;;;;;;7.55;5.07;;;;;;;22.37;49.00;100585.88;4216064;28;20120;-70
2022/11/13 01:43:47;;;;;;;5.28;4.78;;;;;;;22.32;48.88;100573.66;4216140;28;20054;-70
2022/11/13 01:45:57;;;;;;;6.50;5.15;;;;;;;22.32;49.00;100573.66;4215673;28;20048;-70
2022/11/13 01:47:59;;;;;;;6.68;5.18;;;;;;;22.35;48.98;100575.00;4215683;28;20065;-70
2022/11/13 01:50:01;;;;;;;5.95;5.15;;;;;;;22.35;48.82;100571.38;4216056;28;20101;-70
2022/11/13 01:52:14;;;;;;;5.95;4.97;;;;;;;22.35;48.97;100571.38;4215813;28;20044;-70
2022/11/13 01:54:20;;;;;;;6.05;4.60;;;;;;;22.36;49.02;100570.25;4216104;28;20040;-70
2022/11/13 01:56:22;;;;;;;6.05;4.80;;;;;;;22.36;49.03;100570.25;4215774;28;20085;-71
2022/11/13 01:58:24;;;;;;;5.63;5.13;;;;;;;22.36;49.16;100578.63;4215377;28;20048;-70
2022/11/13 02:00:25;;;;;;;5.18;4.60;;;;;;;22.35;49.32;100586.16;4215740;28;20097;-70
2022/11/13 02:02:26;;;;;;;6.03;5.32;;;;;;;22.36;49.18;100584.19;4215375;28;20439;-70
2022/11/13 02:04:30;;;;;;;5.55;5.05;;;;;;;22.37;49.02;100588.66;4215328;28;20040;-70
2022/11/13 02:06:37;;;;;;;8.02;5.20;;;;;;;22.34;49.11;100584.50;4215506;28;20036;-70
2022/11/13 02:08:38;;;;;;;6.30;5.00;;;;;;;22.29;48.78;100585.41;4215852;28;20032;-70
2022/11/13 02:10:40;;;;;;;7.25;5.28;;;;;;;22.35;49.26;100599.25;4215473;28;20437;-71
2022/11/13 02:12:49;;;;;;;6.88;5.32;;;;;;;22.35;49.17;100597.31;4215468;28;20439;-70
2022/11/13 02:14:56;;;;;;;6.10;5.05;;;;;;;22.37;49.03;100599.81;4215948;28;20028;-70
2022/11/13 02:17:05;;;;;;;6.45;5.03;;;;;;;22.36;49.04;100595.34;4215591;28;20036;-69
2022/11/13 02:19:14;;;;;;;6.03;5.00;;;;;;;22.37;49.06;100605.38;4215674;28;20048;-70
2022/11/13 02:21:34;;;;;;;6.05;5.05;;;;;;;22.34;48.72;100606.81;4215548;28;20081;-70
2022/11/13 02:23:56;;;;;;;5.22;4.70;;;;;;;22.36;48.94;100612.06;4215457;28;20536;-71
2022/11/13 02:25:58;;;;;;;6.07;5.47;;;;;;;22.35;48.94;100602.88;4215309;28;20479;-70
2022/11/13 02:28:01;;;;;;;7.15;4.93;;;;;;;22.17;48.79;100567.44;4215080;28;20044;-70
2022/11/13 02:30:23;;;;;;;8.55;5.20;;;;;;;22.31;48.89;100602.66;4215378;28;20036;-70
2022/11/13 02:32:24;;;;;;;6.22;5.45;;;;;;;22.35;49.21;100602.88;4215663;28;20040;-70
2022/11/13 02:34:25;;;;;;;9.02;5.65;;;;;;;22.35;48.95;100602.88;4215470;28;20552;-70
2022/11/13 02:36:30;;;;;;;6.25;5.22;;;;;;;22.20;49.18;100578.81;4215139;28;20040;-70
2022/11/13 02:38:32;;;;;;;5.53;4.53;;;;;;;22.29;49.14;100577.03;4215545;28;20048;-70
2022/11/13 02:40:37;;;;;;;7.05;5.70;;;;;;;22.35;49.07;100585.31;4215299;28;20036;-70
2022/11/13 02:42:39;;;;;;;6.38;5.05;;;;;;;22.24;49.14;100571.53;4215134;28;20028;-70
2022/11/13 02:44:40;;;;;;;5.80;5.03;;;;;;;22.35;49.25;100596.47;4213672;28;20040;-70
2022/11/13 02:46:41;;;;;;;6.80;4.85;;;;;;;22.30;49.10;100584.25;4214553;28;20044;-70
2022/11/13 02:48:43;;;;;;;5.78;4.78;;;;;;;22.33;49.03;100589.25;4215294;28;20036;-70
2022/11/13 02:50:44;;;;;;;5.45;4.95;;;;;;;22.35;49.14;100582.53;4214724;28;20040;-70
2022/11/13 02:52:46;;;;;;;5.28;4.53;;;;;;;22.35;49.20;100579.75;4215098;28;20549;-70
2022/11/13 02:54:53;;;;;;;6.55;5.47;;;;;;;22.21;49.05;100563.75;4215248;28;20032;-70
2022/11/13 02:56:55;;;;;;;6.03;5.18;;;;;;;22.35;49.13;100585.31;4203695;28;20040;-70
2022/11/13 02:58:56;;;;;;;5.50;5.00;;;;;;;22.36;49.28;100581.41;4196807;28;20044;-70
2022/11/13 03:00:59;;;;;;;6.22;5.10;;;;;;;22.37;49.46;100585.88;4198024;28;20036;-69
2022/11/13 03:03:01;;;;;;;5.75;5.18;;;;;;;22.35;49.35;100583.38;4198365;28;20040;-70
2022/11/13 03:05:02;;;;;;;5.40;4.90;;;;;;;22.38;49.27;100584.72;4198376;28;20426;-70
2022/11/13 03:07:09;;;;;;;6.03;4.85;;;;;;;22.35;49.49;100579.75;4197711;28;20086;-69
2022/11/13 03:09:16;;;;;;;5.90;5.07;;;;;;;22.38;49.41;100588.34;4214716;28;20047;-69
2022/11/13 03:11:18;;;;;;;5.85;5.00;;;;;;;22.36;49.20;100584.19;4214272;28;20052;-70
2022/11/13 03:13:19;;;;;;;6.82;4.88;;;;;;;22.21;49.31;100555.41;4213728;28;20510;-70
2022/11/13 03:15:21;;;;;;;6.00;5.40;;;;;;;22.40;49.58;100582.47;4214758;28;20032;-70
2022/11/13 03:17:22;;;;;;;6.15;5.25;;;;;;;22.39;49.22;100580.81;4214676;28;20066;-70
2022/11/13 03:19:23;;;;;;;7.35;5.05;;;;;;;22.40;49.42;100596.41;4214218;28;20040;-70
2022/11/13 03:21:24;;;;;;;5.82;5.00;;;;;;;22.38;49.12;100595.88;4214466;28;20108;-70
2022/11/13 03:23:27;;;;;;;7.95;5.80;;;;;;;22.39;49.20;100619.84;4213604;28;20097;-70
2022/11/13 03:25:28;;;;;;;6.72;6.00;;;;;;;22.37;49.14;100636.06;4214697;28;20097;-70
2022/11/13 03:27:31;;;;;;;7.68;6.70;;;;;;;22.15;49.07;100609.53;4214488;28;20066;-70
2022/11/13 03:29:33;;;;;;;7.97;5.82;;;;;;;22.32;48.77;100632.19;4214547;28;20044;-70
2022/11/13 03:31:34;;;;;;;6.10;5.38;;;;;;;22.32;48.96;100603.50;4214406;28;20043;-70
2022/11/13 03:33:35;;;;;;;5.97;5.43;;;;;;;22.14;48.71;100557.72;4214666;28;20028;-70
2022/11/13 03:35:37;;;;;;;7.50;5.40;;;;;;;22.33;49.08;100566.94;4214138;28;20045;-70
2022/11/13 03:37:38;;;;;;;6.13;5.45;;;;;;;22.26;49.04;100534.97;4214724;28;20548;-70
2022/11/13 03:39:39;;;;;;;7.43;5.53;;;;;;;22.37;49.24;100546.84;4213718;28;20044;-70
2022/11/13 03:41:40;;;;;;;6.40;5.32;;;;;;;22.35;49.18;100557.44;4214368;28;20036;-70
2022/11/13 03:43:42;;;;;;;5.80;5.20;;;;;;;22.30;49.13;100556.38;4214643;28;20093;-70
2022/11/13 03:45:45;;;;;;;5.90;5.00;;;;;;;22.31;48.97;100568.34;4213994;28;20040;-70
2022/11/13 03:47:47;;;;;;;5.35;4.85;;;;;;;22.30;48.65;100584.25;4214705;28;20036;-71
2022/11/13 03:49:51;;;;;;;6.68;5.28;;;;;;;22.30;48.74;100581.47;4214659;28;20044;-70
2022/11/13 03:51:55;;;;;;;5.90;5.30;;;;;;;22.29;48.75;100602.13;4214400;28;20532;-70
2022/11/13 03:53:59;;;;;;;6.22;5.38;;;;;;;22.18;48.72;100589.47;4213988;28;20504;-70
2022/11/13 03:56:01;;;;;;;6.78;5.10;;;;;;;22.28;48.78;100619.97;4214001;28;20500;-70
2022/11/13 03:58:02;;;;;;;5.63;5.00;;;;;;;22.28;48.54;100633.09;4214157;28;20040;-70
2022/11/13 04:00:05;;;;;;;5.85;4.80;;;;;;;22.29;48.68;100654.25;4214365;28;20032;-70
2022/11/13 04:02:06;;;;;;;7.47;5.38;;;;;;;22.26;48.63;100647.31;4214382;28;20060;-70
2022/11/13 04:04:07;;;;;;;8.63;5.80;;;;;;;22.17;48.64;100635.16;4214233;28;20101;-70
2022/11/13 04:06:09;;;;;;;6.00;5.40;;;;;;;22.22;48.96;100642.63;4213872;28;20460;-70
2022/11/13 04:08:10;;;;;;;7.15;5.70;;;;;;;22.23;49.08;100642.34;4213811;28;20081;-70
2022/11/13 04:10:12;;;;;;;5.85;5.25;;;;;;;22.22;48.96;100637.91;4214518;28;20070;-70
2022/11/13 04:12:14;;;;;;;5.70;5.05;;;;;;;22.21;48.93;100625.06;4214357;28;20074;-70
2022/11/13 04:14:15;;;;;;;6.35;5.22;;;;;;;22.21;49.12;100610.31;4214426;28;20036;-69
2022/11/13 04:16:16;;;;;;;5.88;4.85;;;;;;;22.20;48.85;100601.13;4214153;28;20475;-70
2022/11/13 04:18:18;;;;;;;6.25;4.50;;;;;;;22.21;49.27;100596.38;4213816;28;20040;-70
2022/11/13 04:20:22;;;;;;;5.32;4.80;;;;;;;22.08;49.04;100581.16;4214168;28;20028;-70
2022/11/13 04:22:23;;;;;;;5.60;4.97;;;;;;;22.21;48.60;100602.78;4213944;28;20132;-70
2022/11/13 04:24:24;;;;;;;6.13;4.90;;;;;;;22.23;49.20;100616.44;4214040;28;20101;-70
2022/11/13 04:26:26;;;;;;;5.35;4.55;;;;;;;22.04;48.88;100592.09;4213406;28;20036;-70
2022/11/13 04:28:27;;;;;;;5.40;4.85;;;;;;;22.23;49.09;100620.03;4214110;28;20108;-70
2022/11/13 04:30:28;;;;;;;6.68;4.78;;;;;;;22.23;48.59;100620.03;4213950;28;20467;-70
2022/11/13 04:32:31;;;;;;;5.00;4.50;;;;;;;22.21;48.93;100622.28;4214007;28;20437;-70
2022/11/13 04:34:32;;;;;;;5.85;4.47;;;;;;;22.20;48.68;100617.84;4214006;28;20098;-70
2022/11/13 04:36:36;;;;;;;4.53;4.10;;;;;;;22.13;48.77;100609.03;4213538;28;20109;-70
2022/11/13 04:38:37;;;;;;;6.03;4.75;;;;;;;22.16;48.90;100616.78;4214127;28;20040;-70
2022/11/13 04:40:39;;;;;;;5.20;4.68;;;;;;;22.23;49.04;100633.16;4214253;28;20040;-70
2022/11/13 04:42:49;;;;;;;5.28;4.78;;;;;;;22.14;49.08;100618.22;4214150;28;20090;-70
2022/11/13 04:44:51;;;;;;;4.90;4.40;;;;;;;22.22;48.54;100637.91;4214193;28;20078;-70
2022/11/13 04:46:52;;;;;;;6.82;5.00;;;;;;;22.20;48.57;100642.09;4213488;28;20040;-70
2022/11/13 04:48:53;;;;;;;5.85;5.18;;;;;;;22.16;48.77;100650.22;4214036;28;20098;-70
2022/11/13 04:50:54;;;;;;;6.13;5.05;;;;;;;22.17;48.69;100657.44;4214309;28;20028;-70
2022/11/13 04:52:56;;;;;;;6.30;4.90;;;;;;;21.98;48.75;100625.88;4216768;28;20125;-70
2022/11/13 04:55:00;;;;;;;5.57;4.80;;;;;;;22.15;48.81;100654.13;4217103;28;20036;-70
2022/11/13 04:57:01;;;;;;;6.63;4.70;;;;;;;22.13;48.77;100653.63;4216848;28;20101;-70
2022/11/13 04:59:02;;;;;;;6.60;4.80;;;;;;;22.13;48.75;100656.41;4216990;28;20429;-70
2022/11/13 05:01:04;;;;;;;6.60;4.90;;;;;;;22.13;48.90;100656.41;4216598;28;20036;-69
2022/11/13 05:03:08;;;;;;;6.35;4.95;;;;;;;22.11;48.86;100664.19;4216620;28;20040;-70
2022/11/13 05:05:09;;;;;;;6.10;5.00;;;;;;;22.15;48.84;100662.50;4216321;28;20040;-70
2022/11/13 05:07:10;;;;;;;5.57;4.95;;;;;;;21.96;48.90;100636.50;4215926;28;20101;-70
2022/11/13 05:09:12;;;;;;;7.28;5.72;;;;;;;22.05;48.73;100671.78;4216908;28;20036;-70
2022/11/13 05:11:13;;;;;;;6.15;5.55;;;;;;;22.14;48.91;100688.72;4216411;28;20065;-70
2022/11/13 05:13:15;;;;;;;6.63;5.13;;;;;;;22.13;48.85;100684.28;4216736;28;20044;-69
2022/11/13 05:15:16;;;;;;;5.57;4.88;;;;;;;22.03;48.74;100664.81;4216883;28;20105;-70
2022/11/13 05:17:22;;;;;;;7.07;5.70;;;;;;;22.15;48.89;100687.56;4216344;28;20040;-70
2022/11/13 05:19:23;;;;;;;5.60;4.97;;;;;;;22.15;48.82;100687.56;4210734;28;20040;-70
2022/11/13 05:21:24;;;;;;;6.30;5.70;;;;;;;22.12;48.81;100699.31;4217099;28;20044;-73
2022/11/13 05:23:28;;;;;;;5.93;5.32;;;;;;;22.10;48.82;100687.59;4223526;27;20044;-73
2022/11/13 05:25:30;;;;;;;7.18;5.82;;;;;;;22.09;48.76;100688.75;4216050;28;20105;-73
2022/11/13 05:27:31;;;;;;;7.40;5.72;;;;;;;22.04;48.72;100686.84;4215944;28;20043;-73
2022/11/13 05:29:32;;;;;;;7.82;6.03;;;;;;;22.05;48.74;100696.03;4216227;28;20040;-73
2022/11/13 05:31:34;;;;;;;8.60;5.88;;;;;;;22.08;48.83;100698.19;4216159;28;20108;-73
2022/11/13 05:33:37;;;;;;;6.13;5.45;;;;;;;22.07;48.66;100702.13;4216283;28;20035;-73
2022/11/13 05:35:38;;;;;;;7.05;5.28;;;;;;;22.06;48.74;100703.25;4215916;28;20089;-74
2022/11/13 05:37:40;;;;;;;6.47;5.38;;;;;;;22.03;48.68;100706.63;4206423;28;20048;-73
2022/11/13 05:39:41;;;;;;;7.50;5.60;;;;;;;22.02;48.54;100710.53;4213190;28;20090;-74
2022/11/13 05:41:42;;;;;;;7.00;5.50;;;;;;;21.99;48.24;100722.25;4216123;28;20085;-73
2022/11/13 05:43:56;;;;;;;6.35;5.18;;;;;;;21.98;48.68;100712.25;4215880;28;20036;-73
2022/11/13 05:46:00;;;;;;;6.07;5.45;;;;;;;22.02;48.89;100727.25;4216073;28;20032;-73
2022/11/13 05:48:01;;;;;;;8.63;6.22;;;;;;;22.03;48.83;100726.94;4215970;28;20040;-73
2022/11/13 05:50:03;;;;;;;7.60;5.00;;;;;;;21.96;48.95;100722.88;4216258;28;20036;-73
2022/11/13 05:52:04;;;;;;;6.30;5.28;;;;;;;22.02;48.90;100738.41;4216286;28;20036;-73
2022/11/13 05:54:06;;;;;;;8.27;5.00;;;;;;;21.97;49.07;100735.66;4215726;28;20040;-73
2022/11/13 05:56:19;;;;;;;6.40;4.97;;;;;;;22.00;49.08;100740.66;4215650;28;20048;-73
2022/11/13 05:58:20;;;;;;;5.22;4.57;;;;;;;22.05;49.12;100743.38;4216190;28;20048;-73
2022/11/13 06:00:21;;;;;;;6.80;5.22;;;;;;;22.04;49.43;100738.94;4215780;28;20036;-72
2022/11/13 06:02:25;;;;;;;8.35;5.30;;;;;;;22.05;49.26;100737.81;4213715;28;20157;-73
2022/11/13 06:04:29;;;;;;;6.00;4.83;;;;;;;22.09;49.24;100755.63;4215835;28;20057;-73
2022/11/13 06:06:31;;;;;;;6.57;4.60;;;;;;;21.82;49.14;100717.13;4205241;28;20561;-73
2022/11/13 06:08:33;;;;;;;4.70;4.20;;;;;;;22.13;49.29;100759.50;4207580;28;20053;-73
2022/11/13 06:10:37;;;;;;;6.82;5.00;;;;;;;22.12;49.00;100760.63;4202300;28;20098;-73
2022/11/13 06:12:38;;;;;;;4.70;4.15;;;;;;;22.08;49.36;100749.22;4204132;28;20097;-73
2022/11/13 06:14:42;;;;;;;5.32;4.22;;;;;;;22.08;49.19;100753.94;4215271;28;20036;-74
2022/11/13 06:16:43;;;;;;;4.70;4.20;;;;;;;22.00;48.97;100746.22;4215278;28;20469;-73
2022/11/13 06:18:46;;;;;;;4.53;4.05;;;;;;;22.04;49.13;100766.81;4215261;28;20093;-73
2022/11/13 06:20:50;;;;;;;4.90;4.30;;;;;;;22.07;49.12;100777.34;4217466;28;20093;-73
2022/11/13 06:22:51;;;;;;;7.75;4.50;;;;;;;22.13;48.96;100773.44;4215680;28;20093;-73
2022/11/13 06:24:52;;;;;;;5.88;4.20;;;;;;;22.15;49.03;100776.75;4215020;28;20043;-73
2022/11/13 06:26:53;;;;;;;4.35;3.95;;;;;;;22.14;49.05;100791.00;4215252;28;20098;-73
2022/11/13 06:28:55;;;;;;;4.43;4.03;;;;;;;21.97;49.03;100781.06;4214844;28;20044;-73
2022/11/13 06:31:02;;;;;;;4.28;3.50;;;;;;;22.13;49.12;100817.19;4215100;28;20475;-73
2022/11/13 06:33:03;;;;;;;5.00;3.60;;;;;;;22.09;49.06;100811.34;4215615;28;20048;-73
2022/11/13 06:35:05;;;;;;;4.07;3.78;;;;;;;22.05;49.21;100808.31;4215488;28;20113;-73
2022/11/13 06:37:06;;;;;;;5.70;3.90;;;;;;;22.02;48.93;100794.13;4214962;28;20357;-74
2022/11/13 06:39:08;;;;;;;5.68;3.92;;;;;;;22.03;49.18;100801.34;4215210;28;20040;-74
2022/11/13 06:41:12;;;;;;;4.35;3.90;;;;;;;22.03;48.95;100806.94;4215382;28;20040;-73
2022/11/13 06:43:13;;;;;;;4.60;4.05;;;;;;;22.00;49.28;100818.66;4215127;28;20040;-74
2022/11/13 06:45:14;;;;;;;3.83;3.45;;;;;;;22.02;49.07;100821.97;4215393;28;20036;-74
2022/11/13 06:47:16;;;;;;;5.22;3.78;;;;;;;22.03;49.13;100830.03;4214787;28;20580;-73
2022/11/13 06:49:17;;;;;;;4.03;3.53;;;;;;;22.02;49.09;100816.41;4215167;28;20097;-74
2022/11/13 06:51:26;;;;;;;4.20;3.65;;;;;;;21.91;49.29;100787.00;4215054;28;20077;-74
2022/11/13 06:53:28;;;;;;;3.95;3.53;;;;;;;21.98;49.44;100788.28;4215181;28;20459;-73
2022/11/13 06:55:29;;;;;;;5.18;3.42;;;;;;;21.91;49.38;100789.78;4215124;28;20475;-73
2022/11/13 06:57:30;;;;;;;3.95;3.17;;;;;;;21.97;49.25;100796.97;4214982;28;20032;-73
2022/11/13 06:59:31;;;;;;;4.03;3.33;;;;;;;21.99;49.04;100800.28;4215170;28;20101;-73
2022/11/13 07:01:33;;;;;;;3.50;3.20;;;;;;;21.94;49.06;100791.97;4215235;28;20098;-74
2022/11/13 07:03:34;;;;;;;3.53;2.90;;;;;;;21.90;49.30;100796.44;4214304;28;20479;-73
2022/11/13 07:05:36;;;;;;;3.20;2.90;;;;;;;21.84;49.05;100798.44;4214445;28;20475;-73
2022/11/13 07:07:49;;;;;;;3.47;3.17;;;;;;;21.37;49.24;100718.34;4214706;28;20097;-73
2022/11/13 07:09:50;;;;;;;3.03;2.70;;;;;;;21.81;49.26;100799.88;4214660;28;20047;-73
2022/11/13 07:11:54;;;;;;;3.78;2.95;;;;;;;21.80;49.22;100809.34;4214655;28;20044;-74
2022/11/13 07:13:55;;;;;;;3.30;3.00;;;;;;;21.54;49.38;100763.31;4214166;28;20036;-73
2022/11/13 07:16:04;;;;;;;3.20;2.88;;;;;;;21.87;49.41;100814.59;4214766;28;20032;-74
2022/11/13 07:18:06;;;;;;;3.88;3.15;;;;;;;21.91;49.04;100820.41;4214769;28;20045;-74
2022/11/13 07:20:08;;;;;;;3.53;2.75;;;;;;;21.80;48.74;100805.72;4214966;28;20094;-73
2022/11/13 07:22:09;;;;;;;3.10;2.30;;;;;;;21.72;49.11;100793.25;4212588;28;20487;-74
2022/11/13 07:24:10;;;;;;;3.35;3.05;;;;;;;21.86;48.79;100829.66;4214232;28;20044;-73
2022/11/13 07:26:12;;;;;;;2.60;2.40;;;;;;;21.87;48.78;100830.47;4212233;28;20440;-73
2022/11/13 07:28:14;;;;;;;3.03;2.60;;;;;;;21.82;48.96;100837.75;4214661;28;20478;-74
2022/11/13 07:30:15;;;;;;;3.15;2.85;;;;;;;21.74;49.00;100823.59;4214212;28;20436;-74
2022/11/13 07:32:17;;;;;;;2.90;2.70;;;;;;;21.81;48.86;100833.31;4214079;28;20043;-74
2022/11/13 07:34:18;;;;;;;3.88;2.40;;;;;;;21.83;48.98;100835.78;4214405;28;20073;-74
2022/11/13 07:36:19;;;;;;;2.58;2.38;;;;;;;21.82;49.15;100837.75;4213720;28;20089;-73
2022/11/13 07:38:20;;;;;;;3.60;2.75;;;;;;;21.78;49.21;100833.88;4214250;28;20028;-72
2022/11/13 07:40:22;;;;;;;3.00;2.70;;;;;;;21.72;49.25;100831.44;4214422;28;20036;-73
2022/11/13 07:42:23;;;;;;;2.92;2.72;;;;;;;21.83;48.83;100863.66;4214305;28;20036;-73
2022/11/13 07:44:24;;;;;;;2.95;2.17;;;;;;;21.86;48.91;100857.50;4214218;28;20085;-73
2022/11/13 07:46:26;;;;;;;2.80;2.10;;;;;;;21.86;48.84;100853.88;4214081;28;20024;-73
2022/11/13 07:48:29;;;;;;;2.20;2.00;;;;;;;21.91;48.69;100859.41;4214617;28;20105;-74
2022/11/13 07:50:36;;;;;;;2.47;2.08;;;;;;;21.88;48.61;100848.84;4214277;28;20105;-73
2022/11/13 07:52:58;;;;;;;2.33;2.13;;;;;;;21.77;48.48;100820.25;4214624;28;20097;-74
2022/11/13 07:54:58;;;;;;;2.35;2.15;;;;;;;21.80;48.41;100831.63;4213980;28;20074;-74
2022/11/13 07:57:00;;;;;;;2.22;2.03;;;;;;;21.74;48.50;100832.78;4213773;28;20093;-73
2022/11/13 07:59:01;;;;;;;2.45;2.22;;;;;;;21.79;48.21;100851.41;4213750;28;20066;-73
2022/11/13 08:01:04;;;;;;;2.30;2.03;;;;;;;21.76;48.48;100866.75;4214147;28;20040;-73
2022/11/13 08:03:12;;;;;;;2.90;1.65;;;;;;;21.73;48.42;100872.06;4212547;28;20082;-73
2022/11/13 08:05:14;;;;;;;2.10;1.88;;;;;;;21.76;48.27;100869.56;4214198;28;20040;-73
2022/11/13 08:07:15;;;;;;;2.03;1.80;;;;;;;21.77;48.21;100887.09;4213751;28;20471;-73
2022/11/13 08:09:19;;;;;;;4.40;2.30;;;;;;;21.75;48.21;100884.56;4214449;28;20040;-73
2022/11/13 08:11:21;;;;;;;1.75;1.65;;;;;;;21.74;48.10;100866.19;4213701;28;20097;-73
2022/11/13 08:13:22;;;;;;;2.60;2.00;;;;;;;21.70;48.03;100851.19;4214044;28;20487;-74
2022/11/13 08:15:26;;;;;;;1.85;1.73;;;;;;;21.63;48.05;100859.03;4214390;28;20097;-73
2022/11/13 08:17:27;;;;;;;1.53;1.43;;;;;;;21.67;47.79;100857.34;4214098;28;20356;-73
2022/11/13 08:19:29;;;;;;;2.00;1.80;;;;;;;21.67;48.15;100860.13;4213999;28;20044;-73
2022/11/13 08:21:30;;;;;;;1.63;1.52;;;;;;;21.60;47.69;100842.06;4213955;28;20094;-73
2022/11/13 08:23:31;;;;;;;2.17;1.90;;;;;;;21.65;47.75;100851.22;4214105;28;20043;-73
2022/11/13 08:25:36;;;;;;;2.28;1.67;;;;;;;21.65;47.89;100851.22;4215301;28;20382;-74
2022/11/13 08:27:40;;;;;;;1.77;1.67;;;;;;;21.45;47.38;100817.94;4217293;28;20527;-73
2022/11/13 08:29:41;;;;;;;1.50;1.40;;;;;;;21.55;47.42;100835.41;4217130;28;20265;-74
2022/11/13 08:31:48;;;;;;;1.75;1.50;;;;;;;21.47;47.54;100837.97;4217125;28;20032;-73
2022/11/13 08:33:49;;;;;;;1.67;1.40;;;;;;;21.55;47.36;100851.28;4217317;28;20361;-73
2022/11/13 08:35:55;;;;;;;2.03;1.50;;;;;;;21.42;47.42;100835.22;4216315;28;20081;-74
2022/11/13 08:38:07;;;;;;;1.70;1.55;;;;;;;21.43;47.26;100848.84;4215181;28;20040;-74
2022/11/13 08:40:09;;;;;;;1.80;1.70;;;;;;;21.55;47.06;100868.00;4216959;28;20044;-74
2022/11/13 08:42:13;;;;;;;1.42;1.33;;;;;;;21.56;47.37;100875.22;4216133;28;20052;-74
2022/11/13 08:44:17;;;;;;;2.08;1.70;;;;;;;21.62;47.16;100867.66;4216208;28;20109;-74
2022/11/13 08:46:18;;;;;;;1.40;1.30;;;;;;;21.64;47.50;100874.63;4215547;28;20098;-74
2022/11/13 08:48:20;;;;;;;1.95;1.45;;;;;;;21.65;47.38;100879.06;4215179;28;20120;-74
2022/11/13 08:50:21;;;;;;;1.55;1.33;;;;;;;21.66;47.17;100886.28;4216956;28;20044;-73
2022/11/13 08:52:28;;;;;;;1.77;1.40;;;;;;;21.65;47.08;100887.44;4215836;28;20457;-74
2022/11/13 08:54:29;;;;;;;1.35;1.25;;;;;;;21.50;47.12;100870.81;4216004;28;20040;-73
2022/11/13 08:56:30;;;;;;;2.40;1.55;;;;;;;21.43;46.91;100854.41;4215582;28;20052;-73
2022/11/13 08:58:32;;;;;;;1.20;1.10;;;;;;;21.57;46.97;100877.72;4216060;28;20449;-73
2022/11/13 09:00:33;;;;;;;1.70;1.30;;;;;;;21.59;46.72;100874.66;4215676;28;20102;-73
2022/11/13 09:02:34;;;;;;;1.52;1.42;;;;;;;21.55;46.88;100876.34;4216027;28;20101;-73
2022/11/13 09:04:38;;;;;;;1.63;1.23;;;;;;;21.54;46.77;100894.19;4216651;28;20105;-73
2022/11/13 09:06:40;;;;;;;1.67;1.50;;;;;;;21.50;46.57;100920.94;4215348;28;20102;-74
2022/11/13 09:08:41;;;;;;;1.30;1.20;;;;;;;21.55;46.75;100918.94;4214078;28;20039;-73
2022/11/13 09:10:43;;;;;;;1.35;1.15;;;;;;;21.57;46.86;100896.38;4215758;28;20041;-73
2022/11/13 09:12:47;;;;;;;1.25;1.15;;;;;;;21.53;46.62;100915.63;4215593;28;20446;-74
2022/11/13 09:14:49;;;;;;;1.30;1.20;;;;;;;21.42;46.19;100913.16;4215690;28;20040;-73
2022/11/13 09:16:50;;;;;;;1.20;1.10;;;;;;;21.48;46.39;100921.19;4214727;28;20778;-74
2022/11/13 09:18:57;;;;;;;1.20;1.10;;;;;;;21.48;46.24;100900.88;4215583;28;20490;-73
2022/11/13 09:21:04;;;;;;;1.70;1.20;;;;;;;21.48;46.11;100909.22;4215678;28;20032;-74
2022/11/13 09:23:06;;;;;;;2.45;1.13;;;;;;;21.41;45.79;100917.91;4215547;28;20035;-73
2022/11/13 09:25:08;;;;;;;1.60;1.33;;;;;;;21.43;45.93;100928.75;4216544;28;20036;-73
2022/11/13 09:27:09;;;;;;;2.30;1.42;;;;;;;21.43;45.70;100923.16;4214991;28;20036;-73
2022/11/13 09:29:11;;;;;;;1.63;1.17;;;;;;;21.35;45.67;100912.63;4216291;28;20113;-74
2022/11/13 09:31:12;;;;;;;0.95;0.93;;;;;;;21.37;45.67;100924.31;4215410;28;20048;-74